sensor_id;sensor_type;location;lat;lon;timestamp;P1;durP1;ratioP1;P2;durP2;ratioP2
75016;SDS011;63577;39.766;2.720;2024-02-26T00:01:37;3.80;;;0.90;;
75016;SDS011;63577;39.766;2.720;2024-02-26T00:04:02;4.00;;;0.90;;
75016;SDS011;63577;39.766;2.720;2024-02-26T00:06:31;6.50;;;0.90;;
75016;SDS011;63577;39.766;2.720;2024-02-26T00:08:57;3.80;;;1.10;;
75016;SDS011;63577;39.766;2.720;2024-02-26T00:11:23;4.90;;;0.90;;
75016;SDS011;63577;39.766;2.720;2024-02-26T00:13:48;3.60;;;0.80;;
75016;SDS011;63577;39.766;2.720;2024-02-26T00:16:13;4.00;;;0.80;;
75016;SDS011;63577;39.766;2.720;2024-02-26T00:18:38;3.10;;;0.60;;
75016;SDS011;63577;39.766;2.720;2024-02-26T00:21:04;4.30;;;0.90;;
75016;SDS011;63577;39.766;2.720;2024-02-26T00:23:29;4.50;;;0.70;;
75016;SDS011;63577;39.766;2.720;2024-02-26T00:25:55;3.10;;;0.70;;
75016;SDS011;63577;39.766;2.720;2024-02-26T00:28:21;5.00;;;0.70;;
75016;SDS011;63577;39.766;2.720;2024-02-26T00:30:46;3.70;;;0.70;;
75016;SDS011;63577;39.766;2.720;2024-02-26T00:33:12;3.80;;;0.80;;
75016;SDS011;63577;39.766;2.720;2024-02-26T00:35:37;4.20;;;1.00;;
75016;SDS011;63577;39.766;2.720;2024-02-26T00:38:02;5.30;;;0.70;;
75016;SDS011;63577;39.766;2.720;2024-02-26T00:40:29;5.40;;;0.90;;
75016;SDS011;63577;39.766;2.720;2024-02-26T00:42:55;5.20;;;0.90;;
75016;SDS011;63577;39.766;2.720;2024-02-26T00:45:20;2.70;;;0.50;;
75016;SDS011;63577;39.766;2.720;2024-02-26T00:47:45;3.80;;;0.60;;
75016;SDS011;63577;39.766;2.720;2024-02-26T00:50:12;3.50;;;0.60;;
75016;SDS011;63577;39.766;2.720;2024-02-26T00:52:38;2.70;;;0.50;;
75016;SDS011;63577;39.766;2.720;2024-02-26T00:55:03;5.00;;;1.30;;
75016;SDS011;63577;39.766;2.720;2024-02-26T00:57:29;16.80;;;5.80;;
75016;SDS011;63577;39.766;2.720;2024-02-26T00:59:54;21.90;;;8.70;;
75016;SDS011;63577;39.766;2.720;2024-02-26T01:02:21;15.90;;;6.50;;
75016;SDS011;63577;39.766;2.720;2024-02-26T01:04:47;16.90;;;6.60;;
75016;SDS011;63577;39.766;2.720;2024-02-26T01:07:12;13.00;;;4.60;;
75016;SDS011;63577;39.766;2.720;2024-02-26T01:09:38;14.60;;;6.50;;
75016;SDS011;63577;39.766;2.720;2024-02-26T01:12:03;6.80;;;1.50;;
75016;SDS011;63577;39.766;2.720;2024-02-26T01:14:29;8.40;;;2.40;;
75016;SDS011;63577;39.766;2.720;2024-02-26T01:16:54;4.00;;;1.30;;
75016;SDS011;63577;39.766;2.720;2024-02-26T01:19:19;9.50;;;3.00;;
75016;SDS011;63577;39.766;2.720;2024-02-26T01:21:45;5.90;;;2.00;;
75016;SDS011;63577;39.766;2.720;2024-02-26T01:24:10;7.40;;;2.80;;
75016;SDS011;63577;39.766;2.720;2024-02-26T01:26:36;3.80;;;0.90;;
75016;SDS011;63577;39.766;2.720;2024-02-26T01:29:01;12.20;;;6.00;;
75016;SDS011;63577;39.766;2.720;2024-02-26T01:31:26;20.00;;;9.20;;
75016;SDS011;63577;39.766;2.720;2024-02-26T01:33:52;5.20;;;1.30;;
75016;SDS011;63577;39.766;2.720;2024-02-26T01:36:17;13.40;;;6.60;;
75016;SDS011;63577;39.766;2.720;2024-02-26T01:38:43;8.20;;;2.40;;
75016;SDS011;63577;39.766;2.720;2024-02-26T01:41:08;4.10;;;0.70;;
75016;SDS011;63577;39.766;2.720;2024-02-26T01:43:34;3.60;;;0.60;;
75016;SDS011;63577;39.766;2.720;2024-02-26T01:45:59;8.10;;;4.50;;
75016;SDS011;63577;39.766;2.720;2024-02-26T01:48:24;8.40;;;3.70;;
75016;SDS011;63577;39.766;2.720;2024-02-26T01:50:51;6.90;;;2.60;;
75016;SDS011;63577;39.766;2.720;2024-02-26T01:53:16;3.50;;;0.70;;
75016;SDS011;63577;39.766;2.720;2024-02-26T01:55:42;2.70;;;0.60;;
75016;SDS011;63577;39.766;2.720;2024-02-26T01:58:07;3.40;;;1.20;;
75016;SDS011;63577;39.766;2.720;2024-02-26T02:00:33;8.40;;;4.00;;
75016;SDS011;63577;39.766;2.720;2024-02-26T02:02:58;6.10;;;1.30;;
75016;SDS011;63577;39.766;2.720;2024-02-26T02:05:24;3.30;;;0.90;;
75016;SDS011;63577;39.766;2.720;2024-02-26T02:07:50;3.80;;;0.70;;
75016;SDS011;63577;39.766;2.720;2024-02-26T02:10:16;6.30;;;2.10;;
75016;SDS011;63577;39.766;2.720;2024-02-26T02:12:43;6.00;;;2.10;;
75016;SDS011;63577;39.766;2.720;2024-02-26T02:15:08;4.40;;;1.20;;
75016;SDS011;63577;39.766;2.720;2024-02-26T02:17:34;3.40;;;0.70;;
75016;SDS011;63577;39.766;2.720;2024-02-26T02:20:00;2.60;;;0.50;;
75016;SDS011;63577;39.766;2.720;2024-02-26T02:22:27;4.00;;;1.70;;
75016;SDS011;63577;39.766;2.720;2024-02-26T02:24:53;5.70;;;2.10;;
75016;SDS011;63577;39.766;2.720;2024-02-26T02:27:19;4.00;;;1.20;;
75016;SDS011;63577;39.766;2.720;2024-02-26T02:29:44;4.80;;;1.00;;
75016;SDS011;63577;39.766;2.720;2024-02-26T02:32:10;6.60;;;1.00;;
75016;SDS011;63577;39.766;2.720;2024-02-26T02:34:35;2.90;;;0.70;;
75016;SDS011;63577;39.766;2.720;2024-02-26T02:37:01;4.00;;;1.70;;
75016;SDS011;63577;39.766;2.720;2024-02-26T02:39:26;6.10;;;1.00;;
75016;SDS011;63577;39.766;2.720;2024-02-26T02:41:51;3.10;;;0.50;;
75016;SDS011;63577;39.766;2.720;2024-02-26T02:44:17;3.70;;;0.90;;
75016;SDS011;63577;39.766;2.720;2024-02-26T02:46:42;5.70;;;2.00;;
75016;SDS011;63577;39.766;2.720;2024-02-26T02:49:10;3.70;;;0.70;;
75016;SDS011;63577;39.766;2.720;2024-02-26T02:51:36;4.10;;;1.40;;
75016;SDS011;63577;39.766;2.720;2024-02-26T02:54:02;3.90;;;1.40;;
75016;SDS011;63577;39.766;2.720;2024-02-26T02:56:27;5.40;;;1.20;;
75016;SDS011;63577;39.766;2.720;2024-02-26T02:58:53;5.10;;;1.30;;
75016;SDS011;63577;39.766;2.720;2024-02-26T03:01:18;4.20;;;0.70;;
75016;SDS011;63577;39.766;2.720;2024-02-26T03:03:43;4.90;;;1.40;;
75016;SDS011;63577;39.766;2.720;2024-02-26T03:06:09;3.50;;;0.80;;
75016;SDS011;63577;39.766;2.720;2024-02-26T03:08:35;3.30;;;0.80;;
75016;SDS011;63577;39.766;2.720;2024-02-26T03:11:03;3.70;;;0.80;;
75016;SDS011;63577;39.766;2.720;2024-02-26T03:13:29;5.50;;;0.90;;
75016;SDS011;63577;39.766;2.720;2024-02-26T03:15:54;4.20;;;1.00;;
75016;SDS011;63577;39.766;2.720;2024-02-26T03:18:20;2.80;;;0.60;;
75016;SDS011;63577;39.766;2.720;2024-02-26T03:20:45;3.40;;;0.50;;
75016;SDS011;63577;39.766;2.720;2024-02-26T03:23:10;2.80;;;0.70;;
75016;SDS011;63577;39.766;2.720;2024-02-26T03:25:38;3.80;;;0.70;;
75016;SDS011;63577;39.766;2.720;2024-02-26T03:28:03;3.90;;;0.70;;
75016;SDS011;63577;39.766;2.720;2024-02-26T03:30:29;3.40;;;0.70;;
75016;SDS011;63577;39.766;2.720;2024-02-26T03:32:54;3.80;;;1.10;;
75016;SDS011;63577;39.766;2.720;2024-02-26T03:35:20;3.50;;;0.60;;
75016;SDS011;63577;39.766;2.720;2024-02-26T03:37:46;2.70;;;0.50;;
75016;SDS011;63577;39.766;2.720;2024-02-26T03:40:12;3.80;;;0.60;;
75016;SDS011;63577;39.766;2.720;2024-02-26T03:42:41;4.40;;;0.70;;
75016;SDS011;63577;39.766;2.720;2024-02-26T03:45:07;4.00;;;1.70;;
75016;SDS011;63577;39.766;2.720;2024-02-26T03:47:32;5.40;;;0.60;;
75016;SDS011;63577;39.766;2.720;2024-02-26T03:49:57;3.20;;;0.50;;
75016;SDS011;63577;39.766;2.720;2024-02-26T03:52:24;3.00;;;0.50;;
75016;SDS011;63577;39.766;2.720;2024-02-26T03:54:49;3.70;;;0.60;;
75016;SDS011;63577;39.766;2.720;2024-02-26T03:57:15;3.40;;;0.80;;
75016;SDS011;63577;39.766;2.720;2024-02-26T03:59:40;1.80;;;0.50;;
75016;SDS011;63577;39.766;2.720;2024-02-26T04:02:06;3.90;;;0.50;;
75016;SDS011;63577;39.766;2.720;2024-02-26T04:04:33;4.60;;;0.80;;
75016;SDS011;63577;39.766;2.720;2024-02-26T04:06:59;5.30;;;1.40;;
75016;SDS011;63577;39.766;2.720;2024-02-26T04:09:24;3.30;;;0.50;;
75016;SDS011;63577;39.766;2.720;2024-02-26T04:11:50;4.20;;;0.60;;
75016;SDS011;63577;39.766;2.720;2024-02-26T04:14:15;3.40;;;1.20;;
75016;SDS011;63577;39.766;2.720;2024-02-26T04:16:41;2.60;;;0.70;;
75016;SDS011;63577;39.766;2.720;2024-02-26T04:19:06;5.00;;;1.20;;
75016;SDS011;63577;39.766;2.720;2024-02-26T04:21:32;3.20;;;0.60;;
75016;SDS011;63577;39.766;2.720;2024-02-26T04:23:57;2.80;;;0.50;;
75016;SDS011;63577;39.766;2.720;2024-02-26T04:26:26;2.40;;;0.60;;
75016;SDS011;63577;39.766;2.720;2024-02-26T04:28:51;2.40;;;0.50;;
75016;SDS011;63577;39.766;2.720;2024-02-26T04:31:17;7.50;;;0.90;;
75016;SDS011;63577;39.766;2.720;2024-02-26T04:33:43;3.90;;;0.90;;
75016;SDS011;63577;39.766;2.720;2024-02-26T04:36:13;3.70;;;0.70;;
75016;SDS011;63577;39.766;2.720;2024-02-26T04:38:39;3.20;;;0.60;;
75016;SDS011;63577;39.766;2.720;2024-02-26T04:41:04;4.10;;;0.90;;
75016;SDS011;63577;39.766;2.720;2024-02-26T04:43:29;5.80;;;0.80;;
75016;SDS011;63577;39.766;2.720;2024-02-26T04:45:55;4.10;;;0.80;;
75016;SDS011;63577;39.766;2.720;2024-02-26T04:48:22;5.90;;;1.40;;
75016;SDS011;63577;39.766;2.720;2024-02-26T04:50:48;4.90;;;0.90;;
75016;SDS011;63577;39.766;2.720;2024-02-26T04:53:13;5.00;;;0.90;;
75016;SDS011;63577;39.766;2.720;2024-02-26T04:55:39;4.20;;;1.00;;
75016;SDS011;63577;39.766;2.720;2024-02-26T04:58:04;5.20;;;0.80;;
75016;SDS011;63577;39.766;2.720;2024-02-26T05:00:29;3.20;;;0.70;;
75016;SDS011;63577;39.766;2.720;2024-02-26T05:02:55;5.20;;;1.00;;
75016;SDS011;63577;39.766;2.720;2024-02-26T05:05:20;4.60;;;0.70;;
75016;SDS011;63577;39.766;2.720;2024-02-26T05:07:45;5.20;;;0.90;;
75016;SDS011;63577;39.766;2.720;2024-02-26T05:10:11;5.40;;;1.10;;
75016;SDS011;63577;39.766;2.720;2024-02-26T05:12:36;4.00;;;1.10;;
75016;SDS011;63577;39.766;2.720;2024-02-26T05:15:02;4.60;;;0.70;;
75016;SDS011;63577;39.766;2.720;2024-02-26T05:17:28;5.60;;;1.20;;
75016;SDS011;63577;39.766;2.720;2024-02-26T05:19:53;4.40;;;1.10;;
75016;SDS011;63577;39.766;2.720;2024-02-26T05:22:18;4.50;;;0.90;;
75016;SDS011;63577;39.766;2.720;2024-02-26T05:24:44;4.80;;;0.90;;
75016;SDS011;63577;39.766;2.720;2024-02-26T05:27:09;4.50;;;0.80;;
75016;SDS011;63577;39.766;2.720;2024-02-26T05:29:35;4.60;;;0.70;;
75016;SDS011;63577;39.766;2.720;2024-02-26T05:32:00;6.30;;;0.90;;
75016;SDS011;63577;39.766;2.720;2024-02-26T05:34:25;3.80;;;0.70;;
75016;SDS011;63577;39.766;2.720;2024-02-26T05:36:51;5.30;;;0.90;;
75016;SDS011;63577;39.766;2.720;2024-02-26T05:39:16;7.00;;;0.90;;
75016;SDS011;63577;39.766;2.720;2024-02-26T05:41:41;5.40;;;0.90;;
75016;SDS011;63577;39.766;2.720;2024-02-26T05:44:08;4.60;;;0.80;;
75016;SDS011;63577;39.766;2.720;2024-02-26T05:46:35;4.70;;;0.90;;
75016;SDS011;63577;39.766;2.720;2024-02-26T05:49:00;4.30;;;0.80;;
75016;SDS011;63577;39.766;2.720;2024-02-26T05:51:26;5.30;;;1.00;;
75016;SDS011;63577;39.766;2.720;2024-02-26T05:53:51;6.90;;;0.90;;
75016;SDS011;63577;39.766;2.720;2024-02-26T05:56:22;6.30;;;0.80;;
75016;SDS011;63577;39.766;2.720;2024-02-26T05:58:48;6.50;;;1.10;;
75016;SDS011;63577;39.766;2.720;2024-02-26T06:01:15;6.70;;;1.20;;
75016;SDS011;63577;39.766;2.720;2024-02-26T06:03:40;5.80;;;1.00;;
75016;SDS011;63577;39.766;2.720;2024-02-26T06:06:06;5.60;;;1.00;;
75016;SDS011;63577;39.766;2.720;2024-02-26T06:08:31;6.40;;;1.00;;
75016;SDS011;63577;39.766;2.720;2024-02-26T06:10:56;4.90;;;1.00;;
75016;SDS011;63577;39.766;2.720;2024-02-26T06:13:22;5.00;;;1.10;;
75016;SDS011;63577;39.766;2.720;2024-02-26T06:15:47;6.60;;;1.20;;
75016;SDS011;63577;39.766;2.720;2024-02-26T06:18:13;6.90;;;1.10;;
75016;SDS011;63577;39.766;2.720;2024-02-26T06:20:38;3.70;;;1.00;;
75016;SDS011;63577;39.766;2.720;2024-02-26T06:23:04;6.60;;;0.90;;
75016;SDS011;63577;39.766;2.720;2024-02-26T06:25:29;6.40;;;0.90;;
75016;SDS011;63577;39.766;2.720;2024-02-26T06:27:55;5.60;;;0.90;;
75016;SDS011;63577;39.766;2.720;2024-02-26T06:30:21;5.90;;;1.20;;
75016;SDS011;63577;39.766;2.720;2024-02-26T06:32:46;6.50;;;1.10;;
75016;SDS011;63577;39.766;2.720;2024-02-26T06:35:11;4.10;;;1.20;;
75016;SDS011;63577;39.766;2.720;2024-02-26T06:37:37;5.50;;;1.20;;
75016;SDS011;63577;39.766;2.720;2024-02-26T06:40:03;5.80;;;1.10;;
75016;SDS011;63577;39.766;2.720;2024-02-26T06:42:34;4.40;;;1.20;;
75016;SDS011;63577;39.766;2.720;2024-02-26T06:45:00;4.60;;;1.00;;
75016;SDS011;63577;39.766;2.720;2024-02-26T06:47:26;5.80;;;1.00;;
75016;SDS011;63577;39.766;2.720;2024-02-26T06:49:51;5.10;;;1.00;;
75016;SDS011;63577;39.766;2.720;2024-02-26T06:52:16;5.50;;;1.20;;
75016;SDS011;63577;39.766;2.720;2024-02-26T06:54:42;5.80;;;1.10;;
75016;SDS011;63577;39.766;2.720;2024-02-26T06:57:07;4.80;;;1.00;;
75016;SDS011;63577;39.766;2.720;2024-02-26T06:59:32;6.30;;;1.10;;
75016;SDS011;63577;39.766;2.720;2024-02-26T07:01:58;4.80;;;1.00;;
75016;SDS011;63577;39.766;2.720;2024-02-26T07:04:23;4.90;;;1.10;;
75016;SDS011;63577;39.766;2.720;2024-02-26T07:06:48;6.90;;;1.20;;
75016;SDS011;63577;39.766;2.720;2024-02-26T07:09:14;8.10;;;1.60;;
75016;SDS011;63577;39.766;2.720;2024-02-26T07:11:39;7.60;;;1.40;;
75016;SDS011;63577;39.766;2.720;2024-02-26T07:14:09;6.90;;;1.60;;
75016;SDS011;63577;39.766;2.720;2024-02-26T07:16:34;6.20;;;1.10;;
75016;SDS011;63577;39.766;2.720;2024-02-26T07:19:00;6.80;;;1.40;;
75016;SDS011;63577;39.766;2.720;2024-02-26T07:21:25;7.10;;;1.20;;
75016;SDS011;63577;39.766;2.720;2024-02-26T07:23:50;8.50;;;1.20;;
75016;SDS011;63577;39.766;2.720;2024-02-26T07:26:16;10.10;;;1.50;;
75016;SDS011;63577;39.766;2.720;2024-02-26T07:28:43;6.60;;;1.50;;
75016;SDS011;63577;39.766;2.720;2024-02-26T07:31:09;8.90;;;1.50;;
75016;SDS011;63577;39.766;2.720;2024-02-26T07:33:34;12.10;;;1.70;;
75016;SDS011;63577;39.766;2.720;2024-02-26T07:35:59;7.90;;;1.80;;
75016;SDS011;63577;39.766;2.720;2024-02-26T07:38:25;9.10;;;1.60;;
75016;SDS011;63577;39.766;2.720;2024-02-26T07:40:50;8.00;;;1.70;;
75016;SDS011;63577;39.766;2.720;2024-02-26T07:43:15;12.50;;;2.10;;
75016;SDS011;63577;39.766;2.720;2024-02-26T07:45:41;9.80;;;1.50;;
75016;SDS011;63577;39.766;2.720;2024-02-26T07:48:06;6.10;;;1.50;;
75016;SDS011;63577;39.766;2.720;2024-02-26T07:50:32;9.20;;;1.60;;
75016;SDS011;63577;39.766;2.720;2024-02-26T07:52:57;10.30;;;1.80;;
75016;SDS011;63577;39.766;2.720;2024-02-26T07:55:23;8.30;;;1.70;;
75016;SDS011;63577;39.766;2.720;2024-02-26T07:57:49;7.80;;;1.80;;
75016;SDS011;63577;39.766;2.720;2024-02-26T08:00:14;12.00;;;1.70;;
75016;SDS011;63577;39.766;2.720;2024-02-26T08:02:42;9.10;;;1.90;;
75016;SDS011;63577;39.766;2.720;2024-02-26T08:05:07;7.80;;;1.90;;
75016;SDS011;63577;39.766;2.720;2024-02-26T08:07:32;8.60;;;2.00;;
75016;SDS011;63577;39.766;2.720;2024-02-26T08:09:58;6.40;;;1.90;;
75016;SDS011;63577;39.766;2.720;2024-02-26T08:12:23;10.00;;;2.00;;
75016;SDS011;63577;39.766;2.720;2024-02-26T08:14:49;10.10;;;2.80;;
75016;SDS011;63577;39.766;2.720;2024-02-26T08:17:14;10.20;;;2.10;;
75016;SDS011;63577;39.766;2.720;2024-02-26T08:19:39;9.70;;;2.80;;
75016;SDS011;63577;39.766;2.720;2024-02-26T08:22:05;10.50;;;2.60;;
75016;SDS011;63577;39.766;2.720;2024-02-26T08:24:30;8.70;;;2.40;;
75016;SDS011;63577;39.766;2.720;2024-02-26T08:26:55;13.00;;;2.90;;
75016;SDS011;63577;39.766;2.720;2024-02-26T08:29:21;9.20;;;2.90;;
75016;SDS011;63577;39.766;2.720;2024-02-26T08:31:46;10.30;;;2.70;;
75016;SDS011;63577;39.766;2.720;2024-02-26T08:34:13;9.20;;;2.90;;
75016;SDS011;63577;39.766;2.720;2024-02-26T08:36:38;10.50;;;1.90;;
75016;SDS011;63577;39.766;2.720;2024-02-26T08:39:04;9.60;;;2.60;;
75016;SDS011;63577;39.766;2.720;2024-02-26T08:41:29;8.80;;;2.20;;
75016;SDS011;63577;39.766;2.720;2024-02-26T08:43:55;13.10;;;2.10;;
75016;SDS011;63577;39.766;2.720;2024-02-26T08:46:20;9.80;;;2.20;;
75016;SDS011;63577;39.766;2.720;2024-02-26T08:48:46;9.70;;;3.00;;
75016;SDS011;63577;39.766;2.720;2024-02-26T08:51:11;11.30;;;2.70;;
75016;SDS011;63577;39.766;2.720;2024-02-26T08:53:38;9.70;;;3.60;;
75016;SDS011;63577;39.766;2.720;2024-02-26T08:56:04;11.40;;;3.10;;
75016;SDS011;63577;39.766;2.720;2024-02-26T08:58:29;9.70;;;2.60;;
75016;SDS011;63577;39.766;2.720;2024-02-26T09:00:54;10.40;;;2.70;;
75016;SDS011;63577;39.766;2.720;2024-02-26T09:03:20;11.50;;;2.60;;
75016;SDS011;63577;39.766;2.720;2024-02-26T09:05:45;8.00;;;2.70;;
75016;SDS011;63577;39.766;2.720;2024-02-26T09:08:11;9.60;;;2.70;;
75016;SDS011;63577;39.766;2.720;2024-02-26T09:10:36;11.40;;;2.80;;
75016;SDS011;63577;39.766;2.720;2024-02-26T09:13:01;14.30;;;3.00;;
75016;SDS011;63577;39.766;2.720;2024-02-26T09:15:27;10.90;;;2.80;;
75016;SDS011;63577;39.766;2.720;2024-02-26T09:17:52;12.60;;;5.90;;
75016;SDS011;63577;39.766;2.720;2024-02-26T09:20:18;23.00;;;11.50;;
75016;SDS011;63577;39.766;2.720;2024-02-26T09:22:47;34.10;;;22.20;;
75016;SDS011;63577;39.766;2.720;2024-02-26T09:25:13;14.90;;;6.00;;
75016;SDS011;63577;39.766;2.720;2024-02-26T09:27:41;9.20;;;1.90;;
75016;SDS011;63577;39.766;2.720;2024-02-26T09:30:06;17.70;;;8.40;;
75016;SDS011;63577;39.766;2.720;2024-02-26T09:32:32;12.60;;;5.10;;
75016;SDS011;63577;39.766;2.720;2024-02-26T09:34:58;16.00;;;8.10;;
75016;SDS011;63577;39.766;2.720;2024-02-26T09:37:23;10.80;;;2.40;;
75016;SDS011;63577;39.766;2.720;2024-02-26T09:39:48;10.20;;;3.10;;
75016;SDS011;63577;39.766;2.720;2024-02-26T09:42:14;14.10;;;6.60;;
75016;SDS011;63577;39.766;2.720;2024-02-26T09:44:40;11.70;;;3.50;;
75016;SDS011;63577;39.766;2.720;2024-02-26T09:47:10;15.70;;;5.60;;
75016;SDS011;63577;39.766;2.720;2024-02-26T09:49:37;12.90;;;5.80;;
75016;SDS011;63577;39.766;2.720;2024-02-26T09:52:04;14.60;;;4.10;;
75016;SDS011;63577;39.766;2.720;2024-02-26T09:54:30;12.40;;;3.40;;
75016;SDS011;63577;39.766;2.720;2024-02-26T09:56:59;12.40;;;3.40;;
75016;SDS011;63577;39.766;2.720;2024-02-26T09:59:29;10.80;;;4.50;;
75016;SDS011;63577;39.766;2.720;2024-02-26T10:01:58;13.40;;;3.80;;
75016;SDS011;63577;39.766;2.720;2024-02-26T10:04:25;12.10;;;2.80;;
75016;SDS011;63577;39.766;2.720;2024-02-26T10:06:51;10.60;;;2.60;;
75016;SDS011;63577;39.766;2.720;2024-02-26T10:09:16;7.80;;;2.30;;
75016;SDS011;63577;39.766;2.720;2024-02-26T10:11:42;9.90;;;2.50;;
75016;SDS011;63577;39.766;2.720;2024-02-26T10:14:08;19.30;;;12.20;;
75016;SDS011;63577;39.766;2.720;2024-02-26T10:16:34;27.70;;;16.30;;
75016;SDS011;63577;39.766;2.720;2024-02-26T10:19:00;17.40;;;8.60;;
75016;SDS011;63577;39.766;2.720;2024-02-26T10:21:26;13.00;;;5.00;;
75016;SDS011;63577;39.766;2.720;2024-02-26T10:23:51;9.40;;;3.60;;
75016;SDS011;63577;39.766;2.720;2024-02-26T10:26:17;9.00;;;1.90;;
75016;SDS011;63577;39.766;2.720;2024-02-26T10:28:43;6.10;;;1.70;;
75016;SDS011;63577;39.766;2.720;2024-02-26T10:31:09;14.70;;;9.30;;
75016;SDS011;63577;39.766;2.720;2024-02-26T10:33:34;5.80;;;1.90;;
75016;SDS011;63577;39.766;2.720;2024-02-26T10:36:05;7.30;;;1.80;;
75016;SDS011;63577;39.766;2.720;2024-02-26T10:38:37;7.50;;;1.60;;
75016;SDS011;63577;39.766;2.720;2024-02-26T10:41:03;7.80;;;1.30;;
75016;SDS011;63577;39.766;2.720;2024-02-26T10:43:28;9.00;;;5.50;;
75016;SDS011;63577;39.766;2.720;2024-02-26T10:45:55;10.30;;;5.60;;
75016;SDS011;63577;39.766;2.720;2024-02-26T10:48:20;8.10;;;3.30;;
75016;SDS011;63577;39.766;2.720;2024-02-26T10:50:46;5.80;;;2.40;;
75016;SDS011;63577;39.766;2.720;2024-02-26T10:53:16;8.60;;;2.80;;
75016;SDS011;63577;39.766;2.720;2024-02-26T10:58:07;6.50;;;3.00;;
75016;SDS011;63577;39.766;2.720;2024-02-26T11:00:34;7.30;;;2.90;;
75016;SDS011;63577;39.766;2.720;2024-02-26T11:03:01;4.90;;;1.10;;
75016;SDS011;63577;39.766;2.720;2024-02-26T11:05:28;5.60;;;1.40;;
75016;SDS011;63577;39.766;2.720;2024-02-26T11:07:54;5.30;;;0.90;;
75016;SDS011;63577;39.766;2.720;2024-02-26T11:10:20;6.50;;;1.20;;
75016;SDS011;63577;39.766;2.720;2024-02-26T11:12:45;3.40;;;0.70;;
75016;SDS011;63577;39.766;2.720;2024-02-26T11:15:11;4.10;;;0.80;;
75016;SDS011;63577;39.766;2.720;2024-02-26T11:17:37;5.10;;;1.10;;
75016;SDS011;63577;39.766;2.720;2024-02-26T11:20:03;4.30;;;0.80;;
75016;SDS011;63577;39.766;2.720;2024-02-26T11:22:30;3.20;;;0.90;;
75016;SDS011;63577;39.766;2.720;2024-02-26T11:24:56;4.10;;;0.80;;
75016;SDS011;63577;39.766;2.720;2024-02-26T11:27:43;3.70;;;1.10;;
75016;SDS011;63577;39.766;2.720;2024-02-26T11:30:13;5.20;;;1.80;;
75016;SDS011;63577;39.766;2.720;2024-02-26T11:32:38;5.20;;;1.30;;
75016;SDS011;63577;39.766;2.720;2024-02-26T11:35:04;11.70;;;7.30;;
75016;SDS011;63577;39.766;2.720;2024-02-26T11:37:30;9.70;;;4.20;;
75016;SDS011;63577;39.766;2.720;2024-02-26T11:39:55;5.40;;;1.60;;
75016;SDS011;63577;39.766;2.720;2024-02-26T11:42:24;5.40;;;2.00;;
75016;SDS011;63577;39.766;2.720;2024-02-26T11:44:53;6.00;;;1.60;;
75016;SDS011;63577;39.766;2.720;2024-02-26T11:47:21;4.30;;;1.00;;
75016;SDS011;63577;39.766;2.720;2024-02-26T11:49:49;4.40;;;1.20;;
75016;SDS011;63577;39.766;2.720;2024-02-26T11:52:14;28.70;;;18.60;;
75016;SDS011;63577;39.766;2.720;2024-02-26T11:57:21;11.20;;;5.40;;
75016;SDS011;63577;39.766;2.720;2024-02-26T11:59:47;6.70;;;2.40;;
75016;SDS011;63577;39.766;2.720;2024-02-26T12:02:19;8.20;;;3.50;;
75016;SDS011;63577;39.766;2.720;2024-02-26T12:04:58;8.20;;;2.80;;
75016;SDS011;63577;39.766;2.720;2024-02-26T12:07:23;7.80;;;3.00;;
75016;SDS011;63577;39.766;2.720;2024-02-26T12:09:49;5.60;;;2.10;;
75016;SDS011;63577;39.766;2.720;2024-02-26T12:12:17;5.80;;;1.80;;
75016;SDS011;63577;39.766;2.720;2024-02-26T12:14:52;5.20;;;1.20;;
75016;SDS011;63577;39.766;2.720;2024-02-26T12:17:25;4.80;;;1.00;;
75016;SDS011;63577;39.766;2.720;2024-02-26T12:19:50;4.30;;;1.20;;
75016;SDS011;63577;39.766;2.720;2024-02-26T12:22:18;10.40;;;5.20;;
75016;SDS011;63577;39.766;2.720;2024-02-26T12:24:43;7.30;;;2.60;;
75016;SDS011;63577;39.766;2.720;2024-02-26T12:27:09;5.70;;;1.90;;
75016;SDS011;63577;39.766;2.720;2024-02-26T12:29:34;4.50;;;1.60;;
75016;SDS011;63577;39.766;2.720;2024-02-26T12:32:00;5.70;;;1.60;;
75016;SDS011;63577;39.766;2.720;2024-02-26T12:34:25;9.00;;;3.90;;
75016;SDS011;63577;39.766;2.720;2024-02-26T12:36:53;6.00;;;2.50;;
75016;SDS011;63577;39.766;2.720;2024-02-26T12:39:18;5.70;;;2.60;;
75016;SDS011;63577;39.766;2.720;2024-02-26T12:41:45;11.20;;;4.90;;
75016;SDS011;63577;39.766;2.720;2024-02-26T12:44:17;9.60;;;5.90;;
75016;SDS011;63577;39.766;2.720;2024-02-26T12:46:42;6.50;;;3.20;;
75016;SDS011;63577;39.766;2.720;2024-02-26T12:49:08;5.60;;;3.00;;
75016;SDS011;63577;39.766;2.720;2024-02-26T12:51:33;5.20;;;1.70;;
75016;SDS011;63577;39.766;2.720;2024-02-26T12:53:59;4.60;;;1.40;;
75016;SDS011;63577;39.766;2.720;2024-02-26T12:56:25;5.30;;;1.70;;
75016;SDS011;63577;39.766;2.720;2024-02-26T12:58:51;4.20;;;1.00;;
75016;SDS011;63577;39.766;2.720;2024-02-26T13:01:18;6.60;;;2.50;;
75016;SDS011;63577;39.766;2.720;2024-02-26T13:03:44;8.00;;;3.90;;
75016;SDS011;63577;39.766;2.720;2024-02-26T13:06:10;7.20;;;3.20;;
75016;SDS011;63577;39.766;2.720;2024-02-26T13:08:35;6.20;;;2.90;;
75016;SDS011;63577;39.766;2.720;2024-02-26T13:11:01;7.90;;;3.10;;
75016;SDS011;63577;39.766;2.720;2024-02-26T13:13:26;6.20;;;3.00;;
75016;SDS011;63577;39.766;2.720;2024-02-26T13:16:01;6.70;;;2.70;;
75016;SDS011;63577;39.766;2.720;2024-02-26T13:18:28;5.80;;;3.20;;
75016;SDS011;63577;39.766;2.720;2024-02-26T13:21:06;9.30;;;5.90;;
75016;SDS011;63577;39.766;2.720;2024-02-26T13:23:32;6.60;;;3.10;;
75016;SDS011;63577;39.766;2.720;2024-02-26T13:25:57;5.50;;;2.50;;
75016;SDS011;63577;39.766;2.720;2024-02-26T13:28:22;4.40;;;1.80;;
75016;SDS011;63577;39.766;2.720;2024-02-26T13:30:53;4.10;;;1.70;;
75016;SDS011;63577;39.766;2.720;2024-02-26T13:33:19;5.60;;;1.90;;
75016;SDS011;63577;39.766;2.720;2024-02-26T13:35:44;3.50;;;1.10;;
75016;SDS011;63577;39.766;2.720;2024-02-26T13:38:10;3.70;;;1.00;;
75016;SDS011;63577;39.766;2.720;2024-02-26T13:40:35;3.40;;;1.10;;
75016;SDS011;63577;39.766;2.720;2024-02-26T13:43:01;4.20;;;1.30;;
75016;SDS011;63577;39.766;2.720;2024-02-26T13:45:26;6.50;;;1.60;;
75016;SDS011;63577;39.766;2.720;2024-02-26T13:47:51;5.10;;;1.80;;
75016;SDS011;63577;39.766;2.720;2024-02-26T13:50:17;5.80;;;2.10;;
75016;SDS011;63577;39.766;2.720;2024-02-26T13:52:46;5.90;;;1.90;;
75016;SDS011;63577;39.766;2.720;2024-02-26T13:55:12;6.90;;;2.30;;
75016;SDS011;63577;39.766;2.720;2024-02-26T13:57:39;5.00;;;2.10;;
75016;SDS011;63577;39.766;2.720;2024-02-26T14:00:05;5.10;;;1.90;;
75016;SDS011;63577;39.766;2.720;2024-02-26T14:02:31;8.00;;;4.30;;
75016;SDS011;63577;39.766;2.720;2024-02-26T14:04:57;20.20;;;12.90;;
75016;SDS011;63577;39.766;2.720;2024-02-26T14:07:22;10.20;;;6.60;;
75016;SDS011;63577;39.766;2.720;2024-02-26T14:09:47;6.30;;;2.90;;
75016;SDS011;63577;39.766;2.720;2024-02-26T14:12:13;6.50;;;2.60;;
75016;SDS011;63577;39.766;2.720;2024-02-26T14:14:38;5.50;;;2.00;;
75016;SDS011;63577;39.766;2.720;2024-02-26T14:17:05;5.70;;;1.80;;
75016;SDS011;63577;39.766;2.720;2024-02-26T14:19:31;4.20;;;1.70;;
75016;SDS011;63577;39.766;2.720;2024-02-26T14:21:57;3.60;;;1.70;;
75016;SDS011;63577;39.766;2.720;2024-02-26T14:24:22;5.30;;;3.40;;
75016;SDS011;63577;39.766;2.720;2024-02-26T14:26:47;3.70;;;1.30;;
75016;SDS011;63577;39.766;2.720;2024-02-26T14:29:13;3.50;;;1.00;;
75016;SDS011;63577;39.766;2.720;2024-02-26T14:31:39;3.50;;;0.70;;
75016;SDS011;63577;39.766;2.720;2024-02-26T14:34:04;2.30;;;0.50;;
75016;SDS011;63577;39.766;2.720;2024-02-26T14:36:30;1.70;;;0.50;;
75016;SDS011;63577;39.766;2.720;2024-02-26T14:38:55;3.30;;;0.70;;
75016;SDS011;63577;39.766;2.720;2024-02-26T14:41:21;3.20;;;0.70;;
75016;SDS011;63577;39.766;2.720;2024-02-26T14:43:46;3.60;;;0.80;;